Terminal Aerodrome Forecast
Issued by NWS Omaha/Valley, NE

Home | Current Version | Previous Version | Text Only | Print | Product List | Glossary On
Versions: 1 2 3 4 5 6 7 8 9 10 11 12 13 14 15 16 17 18
000
FTUS43 KOAX 202324
TAFLNK
TAF
KLNK 202324Z 2100/2124 VRB04KT 6SM -RA SCT050 OVC080
     FM210100 20008KT P6SM SCT050 BKN080
     FM210900 34010KT 5SM -RA BKN050 OVC080
     FM211400 35014KT P6SM BKN090
     FM211700 36015G25KT P6SM SCT050=

USA.gov is the U.S. government's official web portal to all federal, state and local government web resources and services.